sensor_id;sensor_type;location;lat;lon;timestamp;P1;durP1;ratioP1;P2;durP2;ratioP2
29984;SDS011;17387;42.690;23.328;2023-07-08T00:00:51;20.33;;;17.20;;
29984;SDS011;17387;42.690;23.328;2023-07-08T00:03:16;23.98;;;18.30;;
29984;SDS011;17387;42.690;23.328;2023-07-08T00:05:42;19.98;;;17.23;;
29984;SDS011;17387;42.690;23.328;2023-07-08T00:08:11;25.00;;;18.70;;
29984;SDS011;17387;42.690;23.328;2023-07-08T00:10:37;24.85;;;18.88;;
29984;SDS011;17387;42.690;23.328;2023-07-08T00:13:02;22.70;;;19.33;;
29984;SDS011;17387;42.690;23.328;2023-07-08T00:15:29;20.93;;;18.30;;
29984;SDS011;17387;42.690;23.328;2023-07-08T00:17:55;23.95;;;18.70;;
29984;SDS011;17387;42.690;23.328;2023-07-08T00:20:32;22.13;;;19.13;;
29984;SDS011;17387;42.690;23.328;2023-07-08T00:22:58;22.13;;;19.17;;
29984;SDS011;17387;42.690;23.328;2023-07-08T00:25:26;25.20;;;20.33;;
29984;SDS011;17387;42.690;23.328;2023-07-08T00:27:51;28.55;;;19.92;;
29984;SDS011;17387;42.690;23.328;2023-07-08T00:30:24;23.47;;;19.43;;
29984;SDS011;17387;42.690;23.328;2023-07-08T00:32:49;23.92;;;19.77;;
29984;SDS011;17387;42.690;23.328;2023-07-08T00:35:28;22.33;;;19.77;;
29984;SDS011;17387;42.690;23.328;2023-07-08T00:37:54;21.80;;;19.50;;
29984;SDS011;17387;42.690;23.328;2023-07-08T00:42:51;25.08;;;19.27;;
29984;SDS011;17387;42.690;23.328;2023-07-08T00:48:12;24.40;;;18.23;;
29984;SDS011;17387;42.690;23.328;2023-07-08T00:50:38;21.48;;;19.17;;
29984;SDS011;17387;42.690;23.328;2023-07-08T00:53:20;22.03;;;18.77;;
29984;SDS011;17387;42.690;23.328;2023-07-08T00:55:46;23.67;;;18.58;;
29984;SDS011;17387;42.690;23.328;2023-07-08T00:58:11;21.17;;;18.63;;
29984;SDS011;17387;42.690;23.328;2023-07-08T01:00:37;24.23;;;18.03;;
29984;SDS011;17387;42.690;23.328;2023-07-08T01:03:02;23.08;;;18.85;;
29984;SDS011;17387;42.690;23.328;2023-07-08T01:05:28;20.05;;;17.73;;
29984;SDS011;17387;42.690;23.328;2023-07-08T01:07:56;21.38;;;17.58;;
29984;SDS011;17387;42.690;23.328;2023-07-08T01:10:23;21.65;;;18.23;;
29984;SDS011;17387;42.690;23.328;2023-07-08T01:12:53;19.80;;;17.42;;
29984;SDS011;17387;42.690;23.328;2023-07-08T01:15:20;20.35;;;17.15;;
29984;SDS011;17387;42.690;23.328;2023-07-08T01:17:46;23.42;;;17.73;;
29984;SDS011;17387;42.690;23.328;2023-07-08T01:20:12;20.20;;;17.17;;
29984;SDS011;17387;42.690;23.328;2023-07-08T01:22:40;20.23;;;16.58;;
29984;SDS011;17387;42.690;23.328;2023-07-08T01:25:06;20.50;;;17.02;;
29984;SDS011;17387;42.690;23.328;2023-07-08T01:27:33;18.92;;;16.92;;
29984;SDS011;17387;42.690;23.328;2023-07-08T01:29:59;19.30;;;17.00;;
29984;SDS011;17387;42.690;23.328;2023-07-08T01:32:24;22.48;;;17.38;;
29984;SDS011;17387;42.690;23.328;2023-07-08T01:34:50;21.77;;;17.42;;
29984;SDS011;17387;42.690;23.328;2023-07-08T01:37:32;21.40;;;17.00;;
29984;SDS011;17387;42.690;23.328;2023-07-08T01:42:23;20.45;;;17.02;;
29984;SDS011;17387;42.690;23.328;2023-07-08T01:44:48;19.70;;;17.60;;
29984;SDS011;17387;42.690;23.328;2023-07-08T01:47:14;19.23;;;16.58;;
29984;SDS011;17387;42.690;23.328;2023-07-08T01:49:41;21.48;;;16.95;;
29984;SDS011;17387;42.690;23.328;2023-07-08T01:52:07;22.08;;;17.25;;
29984;SDS011;17387;42.690;23.328;2023-07-08T01:54:33;19.90;;;16.58;;
29984;SDS011;17387;42.690;23.328;2023-07-08T01:56:58;19.35;;;17.15;;
29984;SDS011;17387;42.690;23.328;2023-07-08T01:59:25;19.33;;;16.75;;
29984;SDS011;17387;42.690;23.328;2023-07-08T02:01:51;22.58;;;16.67;;
29984;SDS011;17387;42.690;23.328;2023-07-08T02:04:19;24.05;;;16.75;;
29984;SDS011;17387;42.690;23.328;2023-07-08T02:06:50;18.77;;;14.68;;
29984;SDS011;17387;42.690;23.328;2023-07-08T02:09:15;19.10;;;16.23;;
29984;SDS011;17387;42.690;23.328;2023-07-08T02:11:41;17.67;;;15.87;;
29984;SDS011;17387;42.690;23.328;2023-07-08T02:14:06;18.70;;;15.45;;
29984;SDS011;17387;42.690;23.328;2023-07-08T02:16:32;21.65;;;16.20;;
29984;SDS011;17387;42.690;23.328;2023-07-08T02:18:57;20.27;;;16.27;;
29984;SDS011;17387;42.690;23.328;2023-07-08T02:21:22;20.03;;;16.70;;
29984;SDS011;17387;42.690;23.328;2023-07-08T02:23:48;20.57;;;16.13;;
29984;SDS011;17387;42.690;23.328;2023-07-08T02:26:14;17.73;;;15.93;;
29984;SDS011;17387;42.690;23.328;2023-07-08T02:28:39;19.80;;;15.70;;
29984;SDS011;17387;42.690;23.328;2023-07-08T02:31:04;17.73;;;14.97;;
29984;SDS011;17387;42.690;23.328;2023-07-08T02:33:30;19.45;;;15.18;;
29984;SDS011;17387;42.690;23.328;2023-07-08T02:35:58;17.88;;;15.98;;
29984;SDS011;17387;42.690;23.328;2023-07-08T02:38:23;18.98;;;15.57;;
29984;SDS011;17387;42.690;23.328;2023-07-08T02:40:48;18.40;;;14.80;;
29984;SDS011;17387;42.690;23.328;2023-07-08T02:43:13;19.85;;;15.88;;
29984;SDS011;17387;42.690;23.328;2023-07-08T02:45:39;21.23;;;15.73;;
29984;SDS011;17387;42.690;23.328;2023-07-08T02:48:04;18.97;;;14.47;;
29984;SDS011;17387;42.690;23.328;2023-07-08T02:50:29;18.05;;;15.85;;
29984;SDS011;17387;42.690;23.328;2023-07-08T02:52:54;16.97;;;15.13;;
29984;SDS011;17387;42.690;23.328;2023-07-08T02:55:20;20.43;;;15.47;;
29984;SDS011;17387;42.690;23.328;2023-07-08T02:57:45;19.53;;;15.97;;
29984;SDS011;17387;42.690;23.328;2023-07-08T03:00:10;19.80;;;14.43;;
29984;SDS011;17387;42.690;23.328;2023-07-08T03:02:36;19.10;;;15.70;;
29984;SDS011;17387;42.690;23.328;2023-07-08T03:05:01;18.23;;;15.30;;
29984;SDS011;17387;42.690;23.328;2023-07-08T03:07:26;17.67;;;15.80;;
29984;SDS011;17387;42.690;23.328;2023-07-08T03:09:52;20.00;;;15.65;;
29984;SDS011;17387;42.690;23.328;2023-07-08T03:12:17;16.80;;;14.98;;
29984;SDS011;17387;42.690;23.328;2023-07-08T03:14:42;18.50;;;15.77;;
29984;SDS011;17387;42.690;23.328;2023-07-08T03:17:08;20.05;;;16.70;;
29984;SDS011;17387;42.690;23.328;2023-07-08T03:19:33;19.47;;;15.83;;
29984;SDS011;17387;42.690;23.328;2023-07-08T03:21:58;19.37;;;14.43;;
29984;SDS011;17387;42.690;23.328;2023-07-08T03:24:24;18.08;;;15.23;;
29984;SDS011;17387;42.690;23.328;2023-07-08T03:26:49;16.40;;;14.05;;
29984;SDS011;17387;42.690;23.328;2023-07-08T03:29:19;16.70;;;13.95;;
29984;SDS011;17387;42.690;23.328;2023-07-08T03:31:44;17.33;;;13.73;;
29984;SDS011;17387;42.690;23.328;2023-07-08T03:34:10;15.80;;;13.07;;
29984;SDS011;17387;42.690;23.328;2023-07-08T03:36:36;16.58;;;13.10;;
29984;SDS011;17387;42.690;23.328;2023-07-08T03:39:01;14.63;;;13.13;;
29984;SDS011;17387;42.690;23.328;2023-07-08T03:41:27;18.45;;;13.68;;
29984;SDS011;17387;42.690;23.328;2023-07-08T03:43:52;17.67;;;12.83;;
29984;SDS011;17387;42.690;23.328;2023-07-08T03:46:18;13.60;;;12.20;;
29984;SDS011;17387;42.690;23.328;2023-07-08T03:48:43;13.75;;;12.07;;
29984;SDS011;17387;42.690;23.328;2023-07-08T03:51:26;15.23;;;12.13;;
29984;SDS011;17387;42.690;23.328;2023-07-08T03:53:52;15.23;;;12.25;;
29984;SDS011;17387;42.690;23.328;2023-07-08T03:56:17;16.17;;;12.33;;
29984;SDS011;17387;42.690;23.328;2023-07-08T03:58:43;17.92;;;12.80;;
29984;SDS011;17387;42.690;23.328;2023-07-08T04:01:15;13.23;;;11.82;;
29984;SDS011;17387;42.690;23.328;2023-07-08T04:03:41;13.50;;;11.90;;
29984;SDS011;17387;42.690;23.328;2023-07-08T04:06:06;15.85;;;11.88;;
29984;SDS011;17387;42.690;23.328;2023-07-08T04:08:32;13.30;;;11.33;;
29984;SDS011;17387;42.690;23.328;2023-07-08T04:10:57;12.90;;;11.40;;
29984;SDS011;17387;42.690;23.328;2023-07-08T04:13:22;17.57;;;11.60;;
29984;SDS011;17387;42.690;23.328;2023-07-08T04:15:50;15.85;;;11.30;;
29984;SDS011;17387;42.690;23.328;2023-07-08T04:18:17;13.93;;;11.20;;
29984;SDS011;17387;42.690;23.328;2023-07-08T04:20:42;13.93;;;10.63;;
29984;SDS011;17387;42.690;23.328;2023-07-08T04:23:08;14.90;;;10.70;;
29984;SDS011;17387;42.690;23.328;2023-07-08T04:25:33;14.10;;;10.83;;
29984;SDS011;17387;42.690;23.328;2023-07-08T04:27:58;13.77;;;11.00;;
29984;SDS011;17387;42.690;23.328;2023-07-08T04:30:24;14.23;;;11.07;;
29984;SDS011;17387;42.690;23.328;2023-07-08T04:32:50;13.35;;;10.90;;
29984;SDS011;17387;42.690;23.328;2023-07-08T04:35:16;13.43;;;10.82;;
29984;SDS011;17387;42.690;23.328;2023-07-08T04:37:42;14.30;;;11.07;;
29984;SDS011;17387;42.690;23.328;2023-07-08T04:40:11;16.73;;;11.43;;
29984;SDS011;17387;42.690;23.328;2023-07-08T04:42:39;13.27;;;10.75;;
29984;SDS011;17387;42.690;23.328;2023-07-08T04:45:04;13.57;;;10.90;;
29984;SDS011;17387;42.690;23.328;2023-07-08T04:47:31;14.32;;;11.00;;
29984;SDS011;17387;42.690;23.328;2023-07-08T04:49:58;13.63;;;11.02;;
29984;SDS011;17387;42.690;23.328;2023-07-08T04:52:23;13.10;;;11.70;;
29984;SDS011;17387;42.690;23.328;2023-07-08T04:54:48;14.80;;;11.47;;
29984;SDS011;17387;42.690;23.328;2023-07-08T04:57:13;14.50;;;10.57;;
29984;SDS011;17387;42.690;23.328;2023-07-08T04:59:41;15.68;;;11.15;;
29984;SDS011;17387;42.690;23.328;2023-07-08T05:02:07;19.02;;;11.02;;
29984;SDS011;17387;42.690;23.328;2023-07-08T05:04:32;13.38;;;11.35;;
29984;SDS011;17387;42.690;23.328;2023-07-08T05:06:58;14.50;;;11.07;;
29984;SDS011;17387;42.690;23.328;2023-07-08T05:09:23;12.67;;;10.40;;
29984;SDS011;17387;42.690;23.328;2023-07-08T05:11:50;16.90;;;10.63;;
29984;SDS011;17387;42.690;23.328;2023-07-08T05:14:16;12.45;;;10.15;;
29984;SDS011;17387;42.690;23.328;2023-07-08T05:16:41;13.77;;;11.33;;
29984;SDS011;17387;42.690;23.328;2023-07-08T05:19:06;13.48;;;10.27;;
29984;SDS011;17387;42.690;23.328;2023-07-08T05:21:32;12.48;;;10.55;;
29984;SDS011;17387;42.690;23.328;2023-07-08T05:24:03;17.90;;;11.18;;
29984;SDS011;17387;42.690;23.328;2023-07-08T05:26:29;12.52;;;11.23;;
29984;SDS011;17387;42.690;23.328;2023-07-08T05:28:55;17.02;;;10.10;;
29984;SDS011;17387;42.690;23.328;2023-07-08T05:31:20;14.38;;;10.57;;
29984;SDS011;17387;42.690;23.328;2023-07-08T05:33:45;14.47;;;10.10;;
29984;SDS011;17387;42.690;23.328;2023-07-08T05:36:10;13.63;;;11.10;;
29984;SDS011;17387;42.690;23.328;2023-07-08T05:38:35;12.03;;;10.50;;
29984;SDS011;17387;42.690;23.328;2023-07-08T05:41:01;13.77;;;9.80;;
29984;SDS011;17387;42.690;23.328;2023-07-08T05:43:26;15.60;;;10.47;;
29984;SDS011;17387;42.690;23.328;2023-07-08T05:45:52;12.23;;;9.63;;
29984;SDS011;17387;42.690;23.328;2023-07-08T05:48:17;14.38;;;9.73;;
29984;SDS011;17387;42.690;23.328;2023-07-08T05:50:42;12.05;;;9.88;;
29984;SDS011;17387;42.690;23.328;2023-07-08T05:53:09;11.43;;;10.23;;
29984;SDS011;17387;42.690;23.328;2023-07-08T05:55:35;14.30;;;10.25;;
29984;SDS011;17387;42.690;23.328;2023-07-08T05:58:00;11.32;;;10.10;;
29984;SDS011;17387;42.690;23.328;2023-07-08T06:00:25;13.80;;;9.38;;
29984;SDS011;17387;42.690;23.328;2023-07-08T06:02:51;13.50;;;9.97;;
29984;SDS011;17387;42.690;23.328;2023-07-08T06:05:19;13.13;;;10.27;;
29984;SDS011;17387;42.690;23.328;2023-07-08T06:07:44;13.30;;;9.67;;
29984;SDS011;17387;42.690;23.328;2023-07-08T06:10:09;12.23;;;9.80;;
29984;SDS011;17387;42.690;23.328;2023-07-08T06:12:35;13.98;;;9.90;;
29984;SDS011;17387;42.690;23.328;2023-07-08T06:15:00;10.77;;;9.63;;
29984;SDS011;17387;42.690;23.328;2023-07-08T06:17:26;12.00;;;9.77;;
29984;SDS011;17387;42.690;23.328;2023-07-08T06:19:51;12.70;;;10.23;;
29984;SDS011;17387;42.690;23.328;2023-07-08T06:22:16;11.93;;;10.23;;
29984;SDS011;17387;42.690;23.328;2023-07-08T06:24:44;13.73;;;9.70;;
29984;SDS011;17387;42.690;23.328;2023-07-08T06:27:09;13.00;;;9.95;;
29984;SDS011;17387;42.690;23.328;2023-07-08T06:29:34;14.68;;;9.77;;
29984;SDS011;17387;42.690;23.328;2023-07-08T06:32:00;11.77;;;9.02;;
29984;SDS011;17387;42.690;23.328;2023-07-08T06:34:25;10.80;;;8.60;;
29984;SDS011;17387;42.690;23.328;2023-07-08T06:36:50;12.43;;;8.07;;
29984;SDS011;17387;42.690;23.328;2023-07-08T06:39:16;11.05;;;8.07;;
29984;SDS011;17387;42.690;23.328;2023-07-08T06:41:41;22.92;;;9.00;;
29984;SDS011;17387;42.690;23.328;2023-07-08T06:44:07;10.40;;;8.32;;
29984;SDS011;17387;42.690;23.328;2023-07-08T06:46:32;13.63;;;8.47;;
29984;SDS011;17387;42.690;23.328;2023-07-08T06:48:57;11.23;;;8.45;;
29984;SDS011;17387;42.690;23.328;2023-07-08T06:51:22;10.43;;;8.03;;
29984;SDS011;17387;42.690;23.328;2023-07-08T06:53:48;10.20;;;7.82;;
29984;SDS011;17387;42.690;23.328;2023-07-08T06:56:13;12.80;;;7.27;;
29984;SDS011;17387;42.690;23.328;2023-07-08T06:58:38;10.55;;;7.55;;
29984;SDS011;17387;42.690;23.328;2023-07-08T07:01:04;8.13;;;7.00;;
29984;SDS011;17387;42.690;23.328;2023-07-08T07:03:29;11.25;;;7.97;;
29984;SDS011;17387;42.690;23.328;2023-07-08T07:05:54;12.47;;;7.73;;
29984;SDS011;17387;42.690;23.328;2023-07-08T07:08:19;13.17;;;7.37;;
29984;SDS011;17387;42.690;23.328;2023-07-08T07:10:44;13.82;;;7.75;;
29984;SDS011;17387;42.690;23.328;2023-07-08T07:13:10;9.13;;;8.20;;
29984;SDS011;17387;42.690;23.328;2023-07-08T07:15:35;10.60;;;8.25;;
29984;SDS011;17387;42.690;23.328;2023-07-08T07:18:00;12.70;;;8.43;;
29984;SDS011;17387;42.690;23.328;2023-07-08T07:20:26;12.93;;;8.10;;
29984;SDS011;17387;42.690;23.328;2023-07-08T07:22:52;11.88;;;9.40;;
29984;SDS011;17387;42.690;23.328;2023-07-08T07:25:17;12.10;;;8.43;;
29984;SDS011;17387;42.690;23.328;2023-07-08T07:27:42;9.68;;;8.23;;
29984;SDS011;17387;42.690;23.328;2023-07-08T07:30:08;11.38;;;8.80;;
29984;SDS011;17387;42.690;23.328;2023-07-08T07:32:37;10.48;;;8.05;;
29984;SDS011;17387;42.690;23.328;2023-07-08T07:35:03;11.82;;;8.68;;
29984;SDS011;17387;42.690;23.328;2023-07-08T07:37:28;10.20;;;7.65;;
29984;SDS011;17387;42.690;23.328;2023-07-08T07:39:53;10.03;;;8.37;;
29984;SDS011;17387;42.690;23.328;2023-07-08T07:42:20;9.38;;;7.40;;
29984;SDS011;17387;42.690;23.328;2023-07-08T07:44:45;11.13;;;7.85;;
29984;SDS011;17387;42.690;23.328;2023-07-08T07:47:11;12.57;;;7.80;;
29984;SDS011;17387;42.690;23.328;2023-07-08T07:49:36;9.10;;;7.47;;
29984;SDS011;17387;42.690;23.328;2023-07-08T07:52:02;10.30;;;7.90;;
29984;SDS011;17387;42.690;23.328;2023-07-08T07:54:27;9.57;;;7.43;;
29984;SDS011;17387;42.690;23.328;2023-07-08T07:56:53;9.32;;;7.90;;
29984;SDS011;17387;42.690;23.328;2023-07-08T07:59:18;10.10;;;7.60;;
29984;SDS011;17387;42.690;23.328;2023-07-08T08:01:43;8.38;;;7.55;;
29984;SDS011;17387;42.690;23.328;2023-07-08T08:04:11;8.82;;;7.60;;
29984;SDS011;17387;42.690;23.328;2023-07-08T08:06:37;10.75;;;8.52;;
29984;SDS011;17387;42.690;23.328;2023-07-08T08:09:03;11.05;;;7.80;;
29984;SDS011;17387;42.690;23.328;2023-07-08T08:11:28;10.02;;;7.68;;
29984;SDS011;17387;42.690;23.328;2023-07-08T08:13:53;9.88;;;7.85;;
29984;SDS011;17387;42.690;23.328;2023-07-08T08:16:19;9.45;;;7.72;;
29984;SDS011;17387;42.690;23.328;2023-07-08T08:18:45;11.50;;;8.13;;
29984;SDS011;17387;42.690;23.328;2023-07-08T08:21:10;8.67;;;7.30;;
29984;SDS011;17387;42.690;23.328;2023-07-08T08:23:35;11.17;;;8.10;;
29984;SDS011;17387;42.690;23.328;2023-07-08T08:26:00;9.77;;;8.00;;
29984;SDS011;17387;42.690;23.328;2023-07-08T08:28:25;8.73;;;7.70;;
29984;SDS011;17387;42.690;23.328;2023-07-08T08:30:51;15.00;;;7.07;;
29984;SDS011;17387;42.690;23.328;2023-07-08T08:33:16;10.80;;;7.93;;
29984;SDS011;17387;42.690;23.328;2023-07-08T08:35:42;9.02;;;7.55;;
29984;SDS011;17387;42.690;23.328;2023-07-08T08:38:07;13.30;;;8.48;;
29984;SDS011;17387;42.690;23.328;2023-07-08T08:40:35;11.00;;;8.35;;
29984;SDS011;17387;42.690;23.328;2023-07-08T08:43:09;10.13;;;8.10;;
29984;SDS011;17387;42.690;23.328;2023-07-08T08:45:53;10.50;;;8.20;;
29984;SDS011;17387;42.690;23.328;2023-07-08T08:48:24;10.38;;;7.75;;
29984;SDS011;17387;42.690;23.328;2023-07-08T08:50:51;10.60;;;7.70;;
29984;SDS011;17387;42.690;23.328;2023-07-08T08:53:17;8.43;;;7.47;;
29984;SDS011;17387;42.690;23.328;2023-07-08T08:55:43;9.60;;;6.70;;
29984;SDS011;17387;42.690;23.328;2023-07-08T09:05:51;10.38;;;6.95;;
29984;SDS011;17387;42.690;23.328;2023-07-08T09:13:31;9.30;;;7.07;;
29984;SDS011;17387;42.690;23.328;2023-07-08T09:15:59;10.50;;;7.15;;
29984;SDS011;17387;42.690;23.328;2023-07-08T09:18:27;11.30;;;7.55;;
29984;SDS011;17387;42.690;23.328;2023-07-08T09:20:55;9.82;;;7.40;;
29984;SDS011;17387;42.690;23.328;2023-07-08T09:23:26;10.52;;;7.63;;
29984;SDS011;17387;42.690;23.328;2023-07-08T09:26:05;11.82;;;7.20;;
29984;SDS011;17387;42.690;23.328;2023-07-08T09:28:39;13.13;;;7.85;;
29984;SDS011;17387;42.690;23.328;2023-07-08T09:31:05;10.15;;;7.53;;
29984;SDS011;17387;42.690;23.328;2023-07-08T09:33:31;13.18;;;7.70;;
29984;SDS011;17387;42.690;23.328;2023-07-08T09:35:56;9.02;;;7.18;;
29984;SDS011;17387;42.690;23.328;2023-07-08T09:38:22;11.10;;;7.00;;
29984;SDS011;17387;42.690;23.328;2023-07-08T09:40:48;9.32;;;6.63;;
29984;SDS011;17387;42.690;23.328;2023-07-08T09:43:26;8.55;;;6.88;;
29984;SDS011;17387;42.690;23.328;2023-07-08T09:45:51;9.75;;;7.47;;
29984;SDS011;17387;42.690;23.328;2023-07-08T09:48:24;7.57;;;6.22;;
29984;SDS011;17387;42.690;23.328;2023-07-08T09:50:51;10.40;;;7.00;;
29984;SDS011;17387;42.690;23.328;2023-07-08T09:53:17;9.50;;;6.78;;
29984;SDS011;17387;42.690;23.328;2023-07-08T09:55:42;7.80;;;6.30;;
29984;SDS011;17387;42.690;23.328;2023-07-08T09:58:08;7.53;;;6.22;;
29984;SDS011;17387;42.690;23.328;2023-07-08T10:00:40;10.75;;;7.30;;
29984;SDS011;17387;42.690;23.328;2023-07-08T10:03:08;11.02;;;7.30;;
29984;SDS011;17387;42.690;23.328;2023-07-08T10:05:35;6.95;;;5.88;;
29984;SDS011;17387;42.690;23.328;2023-07-08T10:08:02;8.13;;;6.57;;
29984;SDS011;17387;42.690;23.328;2023-07-08T10:10:34;6.90;;;6.05;;
29984;SDS011;17387;42.690;23.328;2023-07-08T10:15:35;13.20;;;6.63;;
29984;SDS011;17387;42.690;23.328;2023-07-08T10:18:01;7.70;;;6.15;;
29984;SDS011;17387;42.690;23.328;2023-07-08T10:20:29;7.00;;;5.90;;
29984;SDS011;17387;42.690;23.328;2023-07-08T10:23:04;8.18;;;6.63;;
29984;SDS011;17387;42.690;23.328;2023-07-08T10:25:35;8.23;;;6.57;;
29984;SDS011;17387;42.690;23.328;2023-07-08T10:36:16;9.60;;;7.20;;
29984;SDS011;17387;42.690;23.328;2023-07-08T10:48:55;7.30;;;5.33;;
29984;SDS011;17387;42.690;23.328;2023-07-08T10:51:28;7.43;;;5.85;;
29984;SDS011;17387;42.690;23.328;2023-07-08T11:04:24;7.68;;;5.80;;
29984;SDS011;17387;42.690;23.328;2023-07-08T11:06:56;5.85;;;5.32;;
29984;SDS011;17387;42.690;23.328;2023-07-08T11:09:34;5.53;;;4.93;;
29984;SDS011;17387;42.690;23.328;2023-07-08T11:12:11;10.90;;;5.53;;
29984;SDS011;17387;42.690;23.328;2023-07-08T11:14:45;6.90;;;5.63;;
29984;SDS011;17387;42.690;23.328;2023-07-08T11:17:19;7.70;;;5.15;;
29984;SDS011;17387;42.690;23.328;2023-07-08T11:19:59;5.85;;;5.25;;
29984;SDS011;17387;42.690;23.328;2023-07-08T11:22:25;5.80;;;5.25;;
29984;SDS011;17387;42.690;23.328;2023-07-08T11:24:53;6.53;;;5.50;;
29984;SDS011;17387;42.690;23.328;2023-07-08T11:27:20;6.35;;;5.45;;
29984;SDS011;17387;42.690;23.328;2023-07-08T11:32:18;5.97;;;5.20;;
29984;SDS011;17387;42.690;23.328;2023-07-08T11:34:44;7.72;;;5.13;;
29984;SDS011;17387;42.690;23.328;2023-07-08T11:37:11;7.07;;;5.30;;
29984;SDS011;17387;42.690;23.328;2023-07-08T11:39:43;8.35;;;5.75;;
29984;SDS011;17387;42.690;23.328;2023-07-08T11:44:34;7.70;;;5.40;;
29984;SDS011;17387;42.690;23.328;2023-07-08T11:46:59;6.60;;;5.22;;
29984;SDS011;17387;42.690;23.328;2023-07-08T11:49:25;6.97;;;5.23;;
29984;SDS011;17387;42.690;23.328;2023-07-08T11:51:50;7.57;;;5.70;;
29984;SDS011;17387;42.690;23.328;2023-07-08T11:54:20;13.63;;;5.25;;
29984;SDS011;17387;42.690;23.328;2023-07-08T11:57:04;10.63;;;5.40;;
29984;SDS011;17387;42.690;23.328;2023-07-08T11:59:31;5.60;;;5.03;;
29984;SDS011;17387;42.690;23.328;2023-07-08T12:02:13;9.90;;;5.00;;
29984;SDS011;17387;42.690;23.328;2023-07-08T12:04:56;5.28;;;4.72;;
29984;SDS011;17387;42.690;23.328;2023-07-08T12:07:30;10.23;;;4.70;;
29984;SDS011;17387;42.690;23.328;2023-07-08T12:10:00;5.90;;;4.60;;
29984;SDS011;17387;42.690;23.328;2023-07-08T12:12:36;5.15;;;4.32;;
29984;SDS011;17387;42.690;23.328;2023-07-08T12:15:12;5.57;;;4.43;;
29984;SDS011;17387;42.690;23.328;2023-07-08T12:17:38;5.45;;;4.90;;
29984;SDS011;17387;42.690;23.328;2023-07-08T12:20:05;6.15;;;4.60;;
29984;SDS011;17387;42.690;23.328;2023-07-08T12:22:33;6.70;;;4.72;;
29984;SDS011;17387;42.690;23.328;2023-07-08T12:24:58;5.90;;;4.35;;
29984;SDS011;17387;42.690;23.328;2023-07-08T12:27:30;6.18;;;4.57;;
29984;SDS011;17387;42.690;23.328;2023-07-08T12:29:56;6.32;;;4.15;;
29984;SDS011;17387;42.690;23.328;2023-07-08T12:32:21;5.40;;;4.53;;
29984;SDS011;17387;42.690;23.328;2023-07-08T12:34:50;6.32;;;4.65;;
29984;SDS011;17387;42.690;23.328;2023-07-08T12:37:15;6.68;;;4.53;;
29984;SDS011;17387;42.690;23.328;2023-07-08T12:39:41;7.03;;;4.30;;
29984;SDS011;17387;42.690;23.328;2023-07-08T12:42:12;9.88;;;4.25;;
29984;SDS011;17387;42.690;23.328;2023-07-08T12:44:39;6.65;;;4.18;;
29984;SDS011;17387;42.690;23.328;2023-07-08T12:47:09;6.82;;;4.20;;
29984;SDS011;17387;42.690;23.328;2023-07-08T12:49:35;4.28;;;3.60;;
29984;SDS011;17387;42.690;23.328;2023-07-08T12:52:00;6.07;;;4.00;;
29984;SDS011;17387;42.690;23.328;2023-07-08T12:54:27;5.43;;;3.80;;
29984;SDS011;17387;42.690;23.328;2023-07-08T12:56:53;8.55;;;4.18;;
29984;SDS011;17387;42.690;23.328;2023-07-08T12:59:19;7.18;;;4.20;;
29984;SDS011;17387;42.690;23.328;2023-07-08T13:01:46;4.20;;;3.78;;
29984;SDS011;17387;42.690;23.328;2023-07-08T13:04:12;6.18;;;3.60;;
29984;SDS011;17387;42.690;23.328;2023-07-08T13:06:38;4.72;;;4.07;;
29984;SDS011;17387;42.690;23.328;2023-07-08T13:11:33;4.65;;;3.72;;
29984;SDS011;17387;42.690;23.328;2023-07-08T13:13:59;4.90;;;3.90;;
29984;SDS011;17387;42.690;23.328;2023-07-08T13:16:28;9.05;;;4.07;;
29984;SDS011;17387;42.690;23.328;2023-07-08T13:18:55;7.95;;;3.72;;
29984;SDS011;17387;42.690;23.328;2023-07-08T13:21:20;4.40;;;3.70;;
29984;SDS011;17387;42.690;23.328;2023-07-08T13:23:45;6.07;;;3.67;;
29984;SDS011;17387;42.690;23.328;2023-07-08T13:26:13;5.53;;;4.07;;
29984;SDS011;17387;42.690;23.328;2023-07-08T13:28:39;4.72;;;3.53;;
29984;SDS011;17387;42.690;23.328;2023-07-08T13:31:21;3.15;;;2.85;;
29984;SDS011;17387;42.690;23.328;2023-07-08T13:33:48;5.03;;;3.72;;
29984;SDS011;17387;42.690;23.328;2023-07-08T13:36:15;9.30;;;3.97;;
29984;SDS011;17387;42.690;23.328;2023-07-08T13:38:41;5.20;;;3.80;;
29984;SDS011;17387;42.690;23.328;2023-07-08T13:41:07;6.35;;;3.78;;
29984;SDS011;17387;42.690;23.328;2023-07-08T13:43:34;6.60;;;3.78;;
29984;SDS011;17387;42.690;23.328;2023-07-08T13:46:00;3.97;;;3.45;;
29984;SDS011;17387;42.690;23.328;2023-07-08T13:48:31;4.22;;;3.60;;
29984;SDS011;17387;42.690;23.328;2023-07-08T13:51:01;3.95;;;3.15;;
29984;SDS011;17387;42.690;23.328;2023-07-08T13:53:43;5.75;;;3.33;;
29984;SDS011;17387;42.690;23.328;2023-07-08T13:56:12;5.85;;;3.50;;
29984;SDS011;17387;42.690;23.328;2023-07-08T13:58:42;6.13;;;3.42;;
29984;SDS011;17387;42.690;23.328;2023-07-08T14:01:11;3.75;;;3.28;;
29984;SDS011;17387;42.690;23.328;2023-07-08T14:03:39;5.50;;;3.72;;
29984;SDS011;17387;42.690;23.328;2023-07-08T14:06:04;4.00;;;3.30;;
29984;SDS011;17387;42.690;23.328;2023-07-08T14:08:29;4.77;;;3.60;;
29984;SDS011;17387;42.690;23.328;2023-07-08T14:10:55;5.77;;;3.93;;
29984;SDS011;17387;42.690;23.328;2023-07-08T14:13:20;4.73;;;3.50;;
29984;SDS011;17387;42.690;23.328;2023-07-08T14:15:46;7.07;;;3.78;;
29984;SDS011;17387;42.690;23.328;2023-07-08T14:18:11;4.13;;;3.30;;
29984;SDS011;17387;42.690;23.328;2023-07-08T14:20:37;5.82;;;3.42;;
29984;SDS011;17387;42.690;23.328;2023-07-08T14:23:02;5.57;;;3.30;;
29984;SDS011;17387;42.690;23.328;2023-07-08T14:25:27;5.13;;;3.93;;
29984;SDS011;17387;42.690;23.328;2023-07-08T14:27:52;5.20;;;3.77;;
29984;SDS011;17387;42.690;23.328;2023-07-08T14:30:18;4.70;;;3.60;;
29984;SDS011;17387;42.690;23.328;2023-07-08T14:32:43;3.80;;;3.22;;
29984;SDS011;17387;42.690;23.328;2023-07-08T14:35:16;4.45;;;3.38;;
29984;SDS011;17387;42.690;23.328;2023-07-08T14:37:42;6.57;;;3.75;;
29984;SDS011;17387;42.690;23.328;2023-07-08T14:42:51;4.60;;;4.10;;
29984;SDS011;17387;42.690;23.328;2023-07-08T14:45:17;7.32;;;3.85;;
29984;SDS011;17387;42.690;23.328;2023-07-08T14:47:42;5.20;;;3.90;;
29984;SDS011;17387;42.690;23.328;2023-07-08T14:50:12;6.07;;;3.33;;
29984;SDS011;17387;42.690;23.328;2023-07-08T14:52:37;4.20;;;3.50;;
29984;SDS011;17387;42.690;23.328;2023-07-08T14:55:02;4.50;;;3.40;;
29984;SDS011;17387;42.690;23.328;2023-07-08T14:57:28;7.43;;;3.67;;
29984;SDS011;17387;42.690;23.328;2023-07-08T14:59:55;5.90;;;3.80;;
29984;SDS011;17387;42.690;23.328;2023-07-08T15:02:23;6.43;;;3.83;;
29984;SDS011;17387;42.690;23.328;2023-07-08T15:04:49;4.35;;;3.83;;
29984;SDS011;17387;42.690;23.328;2023-07-08T15:07:18;9.13;;;4.05;;
29984;SDS011;17387;42.690;23.328;2023-07-08T15:09:43;6.10;;;4.27;;
29984;SDS011;17387;42.690;23.328;2023-07-08T15:12:09;6.90;;;3.92;;
29984;SDS011;17387;42.690;23.328;2023-07-08T15:14:35;5.18;;;3.90;;
29984;SDS011;17387;42.690;23.328;2023-07-08T15:17:00;7.57;;;4.17;;
29984;SDS011;17387;42.690;23.328;2023-07-08T15:19:25;5.40;;;4.32;;
29984;SDS011;17387;42.690;23.328;2023-07-08T15:21:53;7.10;;;4.20;;